createdAt,value
2022-08-22T00:01:46.230Z,5.88
2022-08-22T00:02:55.135Z,5.88
2022-08-22T00:02:58.875Z,4.63
2022-08-22T00:02:58.996Z,5.22
2022-08-22T00:03:11.929Z,5.70
2022-08-22T00:04:26.781Z,17.60
2022-08-22T00:07:08.639Z,6.45
2022-08-22T00:09:48.700Z,6.15
2022-08-22T00:12:21.762Z,6.20
2022-08-22T00:14:58.960Z,5.63
2022-08-22T00:17:44.259Z,6.47
2022-08-22T00:20:19.832Z,6.60
2022-08-22T00:23:00.083Z,7.28
2022-08-22T00:25:44.557Z,6.97
2022-08-22T00:28:17.696Z,6.05
2022-08-22T00:30:52.564Z,6.30
2022-08-22T00:33:27.995Z,6.47
2022-08-22T00:36:30.489Z,6.40
2022-08-22T00:39:08.584Z,7.22
2022-08-22T00:42:05.343Z,5.85
2022-08-22T00:45:13.777Z,6.20
2022-08-22T00:48:02.692Z,6.43
2022-08-22T00:50:46.278Z,6.03
2022-08-22T00:53:43.179Z,6.10
2022-08-22T00:56:41.904Z,7.13
2022-08-22T00:59:44.152Z,6.38
2022-08-22T01:02:29.852Z,5.82
2022-08-22T01:05:23.937Z,5.93
2022-08-22T01:08:04.836Z,6.50
2022-08-22T01:10:53.143Z,6.50
2022-08-22T01:13:39.631Z,7.97
2022-08-22T01:16:26.572Z,7.10
2022-08-22T01:19:21.161Z,7.13
2022-08-22T01:22:16.530Z,6.40
2022-08-22T01:25:48.961Z,7.05
2022-08-22T01:29:10.349Z,7.40
2022-08-22T01:32:44.785Z,6.50
2022-08-22T01:35:33.022Z,6.75
2022-08-22T01:38:39.621Z,7.15
2022-08-22T01:41:48.432Z,6.85
2022-08-22T01:44:37.917Z,7.13
2022-08-22T01:47:12.295Z,7.32
2022-08-22T01:49:44.433Z,6.22
2022-08-22T01:52:19.463Z,6.82
2022-08-22T01:54:54.910Z,6.47
2022-08-22T01:57:23.733Z,6.00
2022-08-22T01:59:54.952Z,6.93
2022-08-22T02:02:44.292Z,7.53
2022-08-22T02:05:22.184Z,7.28
2022-08-22T02:07:57.842Z,7.88
2022-08-22T02:10:43.226Z,7.25
2022-08-22T02:13:26.151Z,7.03
2022-08-22T02:16:20.234Z,6.97
2022-08-22T02:19:06.141Z,7.03
2022-08-22T02:21:45.146Z,6.88
2022-08-22T02:24:24.789Z,8.07
2022-08-22T02:27:08.046Z,6.80
2022-08-22T02:29:43.755Z,7.40
2022-08-22T02:32:20.171Z,7.35
2022-08-22T02:34:56.883Z,6.85
2022-08-22T02:37:40.553Z,7.55
2022-08-22T02:40:17.633Z,6.60
2022-08-22T02:42:51.397Z,5.90
2022-08-22T02:45:30.351Z,6.95
2022-08-22T02:48:10.404Z,6.53
2022-08-22T02:50:44.524Z,6.85
2022-08-22T02:53:28.678Z,6.07
2022-08-22T02:56:03.329Z,7.20
2022-08-22T02:58:39.568Z,6.43
2022-08-22T03:01:21.608Z,5.78
2022-08-22T03:03:50.572Z,6.50
2022-08-22T03:06:35.013Z,5.60
2022-08-22T03:09:22.123Z,6.07
2022-08-22T03:12:08.310Z,5.45
2022-08-22T03:14:44.284Z,5.68
2022-08-22T03:17:18.426Z,5.63
2022-08-22T03:19:56.544Z,5.65
2022-08-22T03:22:37.721Z,5.30
2022-08-22T03:25:14.997Z,4.80
2022-08-22T03:27:50.554Z,5.10
2022-08-22T03:30:21.902Z,4.82
2022-08-22T03:32:54.676Z,3.97
2022-08-22T03:35:32.607Z,5.07
2022-08-22T03:38:17.198Z,4.80
2022-08-22T03:40:56.151Z,4.70
2022-08-22T03:43:56.141Z,4.20
2022-08-22T03:46:57.012Z,4.68
2022-08-22T03:50:00.036Z,4.45
2022-08-22T03:53:19.163Z,4.40
2022-08-22T03:58:45.834Z,4.03
2022-08-22T04:01:43.043Z,3.92
2022-08-22T04:04:52.588Z,3.88
2022-08-22T04:10:32.422Z,3.80
2022-08-22T04:13:29.380Z,4.28
2022-08-22T04:16:20.968Z,4.47
2022-08-22T04:19:12.763Z,4.18
2022-08-22T04:21:53.848Z,3.42
2022-08-22T04:24:48.978Z,2.97
2022-08-22T04:27:25.989Z,3.97
2022-08-22T04:29:59.984Z,3.83
2022-08-22T04:32:36.325Z,4.18
2022-08-22T04:35:09.479Z,3.75
2022-08-22T04:37:46.539Z,3.97
2022-08-22T04:40:22.093Z,4.03
2022-08-22T04:42:54.603Z,3.88
2022-08-22T04:45:27.779Z,3.10
2022-08-22T04:48:00.870Z,3.58
2022-08-22T04:50:35.259Z,3.90
2022-08-22T04:53:17.493Z,3.40
2022-08-22T04:55:56.315Z,3.72
2022-08-22T04:58:40.838Z,3.08
2022-08-22T05:01:15.112Z,3.20
2022-08-22T05:03:52.229Z,3.13
2022-08-22T05:06:25.699Z,3.47
2022-08-22T05:08:57.242Z,3.88
2022-08-22T05:11:24.951Z,3.30
2022-08-22T05:13:57.569Z,2.67
2022-08-22T05:16:30.737Z,3.15
2022-08-22T05:19:03.235Z,3.40
2022-08-22T05:21:38.110Z,3.15
2022-08-22T05:24:11.109Z,2.90
2022-08-22T05:26:44.647Z,4.25
2022-08-22T05:29:15.770Z,3.35
2022-08-22T05:31:49.456Z,3.78
2022-08-22T05:34:22.467Z,3.58
2022-08-22T05:36:56.351Z,3.03
2022-08-22T05:39:27.980Z,3.63
2022-08-22T05:41:57.535Z,2.22
2022-08-22T05:44:28.423Z,2.72
2022-08-22T05:47:03.162Z,2.97
2022-08-22T05:49:39.034Z,2.75
2022-08-22T05:52:16.552Z,2.92
2022-08-22T05:54:56.746Z,3.08
2022-08-22T05:57:30.285Z,2.92
2022-08-22T06:00:04.281Z,3.00
2022-08-22T06:02:53.593Z,4.25
2022-08-22T06:05:27.976Z,3.88
2022-08-22T06:08:03.020Z,2.38
2022-08-22T06:10:40.768Z,2.75
2022-08-22T06:13:12.754Z,2.42
2022-08-22T06:15:55.083Z,4.38
2022-08-22T06:18:26.472Z,2.67
2022-08-22T06:20:56.819Z,2.45
2022-08-22T06:23:37.665Z,2.90
2022-08-22T06:26:20.825Z,2.30
2022-08-22T06:28:55.333Z,2.55
2022-08-22T06:31:29.364Z,2.60
2022-08-22T06:34:05.098Z,2.97
2022-08-22T06:36:36.223Z,2.58
2022-08-22T06:39:12.441Z,2.95
2022-08-22T06:41:45.409Z,3.35
2022-08-22T06:44:18.858Z,2.53
2022-08-22T06:46:48.334Z,2.25
2022-08-22T06:49:21.187Z,3.08
2022-08-22T06:51:50.644Z,2.22
2022-08-22T06:54:25.323Z,2.88
2022-08-22T06:56:55.710Z,2.63
2022-08-22T06:59:27.049Z,2.22
2022-08-22T07:02:03.755Z,2.38
2022-08-22T07:04:32.260Z,1.98
2022-08-22T07:07:01.665Z,2.95
2022-08-22T07:09:35.365Z,2.42
2022-08-22T07:12:11.317Z,2.53
2022-08-22T07:14:41.907Z,2.42
2022-08-22T07:17:18.903Z,2.38
2022-08-22T07:19:56.593Z,2.40
2022-08-22T07:22:27.417Z,2.80
2022-08-22T07:25:01.894Z,3.00
2022-08-22T07:27:48.914Z,3.05
2022-08-22T07:30:27.345Z,2.63
2022-08-22T07:33:25.879Z,2.80
2022-08-22T07:35:56.250Z,2.40
2022-08-22T07:38:43.261Z,2.47
2022-08-22T07:41:17.008Z,2.25
2022-08-22T07:43:48.693Z,2.70
2022-08-22T07:46:28.887Z,2.58
2022-08-22T07:49:09.429Z,2.55
2022-08-22T07:51:44.472Z,2.13
2022-08-22T07:54:14.797Z,2.40
2022-08-22T07:56:49.088Z,2.40
2022-08-22T07:59:20.154Z,2.47
2022-08-22T08:01:51.613Z,2.75
2022-08-22T08:04:23.499Z,2.92
2022-08-22T08:06:56.384Z,2.63
2022-08-22T08:09:28.248Z,2.35
2022-08-22T08:12:07.075Z,3.13
2022-08-22T08:14:40.044Z,2.30
2022-08-22T08:17:13.474Z,2.05
2022-08-22T08:19:43.784Z,2.85
2022-08-22T08:22:17.522Z,2.67
2022-08-22T08:24:48.503Z,2.80
2022-08-22T08:27:40.698Z,2.47
2022-08-22T08:30:15.569Z,2.70
2022-08-22T08:32:49.132Z,2.55
2022-08-22T08:35:23.190Z,1.92
2022-08-22T08:37:59.204Z,2.65
2022-08-22T08:40:58.649Z,3.08
2022-08-22T08:43:40.893Z,2.92
2022-08-22T08:46:32.331Z,2.40
2022-08-22T08:49:23.955Z,2.78
2022-08-22T08:52:21.660Z,2.70
2022-08-22T08:58:26.883Z,2.47
2022-08-22T09:01:11.685Z,2.80
2022-08-22T09:04:06.970Z,2.78
2022-08-22T09:07:01.669Z,3.40
2022-08-22T09:09:43.289Z,3.05
2022-08-22T09:12:33.919Z,2.60
2022-08-22T09:15:15.974Z,3.22
2022-08-22T09:18:18.116Z,3.78
2022-08-22T09:21:07.682Z,2.63
2022-08-22T09:24:20.816Z,2.38
2022-08-22T09:26:57.043Z,3.08
2022-08-22T09:29:54.547Z,3.05
2022-08-22T09:32:40.880Z,2.92
2022-08-22T09:35:22.387Z,2.20
2022-08-22T09:38:22.380Z,3.10
2022-08-22T09:41:00.165Z,3.28
2022-08-22T09:43:37.609Z,2.83
2022-08-22T09:46:14.557Z,2.65
2022-08-22T09:49:14.889Z,3.10
2022-08-22T09:51:56.809Z,3.28
2022-08-22T09:57:17.817Z,3.42
2022-08-22T09:59:58.435Z,2.65
2022-08-22T10:02:51.350Z,2.35
2022-08-22T10:05:40.675Z,2.92
2022-08-22T10:08:19.699Z,3.20
2022-08-22T10:11:00.849Z,3.60
2022-08-22T10:13:40.816Z,2.75
2022-08-22T10:18:54.757Z,3.78
2022-08-22T10:21:37.411Z,3.75
2022-08-22T10:24:25.429Z,3.15
2022-08-22T10:26:58.147Z,4.10
2022-08-22T10:29:54.138Z,3.08
2022-08-22T10:32:31.169Z,2.60
2022-08-22T10:35:03.900Z,3.55
2022-08-22T10:37:46.088Z,3.00
2022-08-22T10:40:21.570Z,3.92
2022-08-22T10:42:54.513Z,2.88
2022-08-22T10:45:36.253Z,3.35
2022-08-22T10:48:32.636Z,3.50
2022-08-22T10:51:10.191Z,3.20
2022-08-22T10:53:57.457Z,3.10
2022-08-22T10:56:34.433Z,2.83
2022-08-22T10:59:19.130Z,3.60
2022-08-22T11:02:02.322Z,3.35
2022-08-22T11:04:48.275Z,3.33
2022-08-22T11:07:39.627Z,2.90
2022-08-22T11:10:19.640Z,2.85
2022-08-22T11:13:12.116Z,3.72
2022-08-22T11:16:04.364Z,2.97
2022-08-22T11:18:51.515Z,2.85
2022-08-22T11:21:42.025Z,2.90
2022-08-22T11:24:29.991Z,2.63
2022-08-22T11:27:14.675Z,2.90
2022-08-22T11:29:59.327Z,2.60
2022-08-22T11:32:37.988Z,3.45
2022-08-22T11:35:13.924Z,2.38
2022-08-22T11:38:04.053Z,3.22
2022-08-22T11:41:41.527Z,2.83
2022-08-22T11:44:50.394Z,2.78
2022-08-22T11:47:26.756Z,3.30
2022-08-22T11:50:01.895Z,2.65
2022-08-22T11:53:07.711Z,2.42
2022-08-22T11:55:41.507Z,3.63
2022-08-22T11:58:29.230Z,2.95
2022-08-22T12:01:03.317Z,2.88
2022-08-22T12:03:43.097Z,5.47
2022-08-22T12:06:38.434Z,3.08
2022-08-22T12:09:31.920Z,3.30
2022-08-22T12:12:17.074Z,2.63
2022-08-22T12:14:54.627Z,3.33
2022-08-22T12:17:55.142Z,3.05
2022-08-22T12:20:48.013Z,2.97
2022-08-22T12:23:49.365Z,3.00
2022-08-22T12:26:27.581Z,2.63
2022-08-22T12:29:15.724Z,3.35
2022-08-22T12:32:33.988Z,3.03
2022-08-22T12:35:29.709Z,2.58
2022-08-22T12:38:08.123Z,3.00
2022-08-22T12:41:13.905Z,2.78
2022-08-22T12:44:21.570Z,2.45
2022-08-22T12:47:04.331Z,2.70
2022-08-22T12:49:42.208Z,3.08
2022-08-22T12:52:31.870Z,2.28
2022-08-22T12:55:33.890Z,2.63
2022-08-22T12:58:12.152Z,2.75
2022-08-22T13:00:45.183Z,2.53
2022-08-22T13:03:23.855Z,3.00
2022-08-22T13:05:56.856Z,2.83
2022-08-22T13:08:32.106Z,2.95
2022-08-22T13:11:02.586Z,2.67
2022-08-22T13:13:37.057Z,2.40
2022-08-22T13:16:09.110Z,3.00
2022-08-22T13:18:47.398Z,3.17
2022-08-22T13:21:26.733Z,2.30
2022-08-22T13:24:05.769Z,2.80
2022-08-22T13:29:26.121Z,2.22
2022-08-22T13:31:59.347Z,3.42
2022-08-22T13:34:40.580Z,2.53
2022-08-22T13:37:17.956Z,2.70
2022-08-22T13:39:56.102Z,2.30
2022-08-22T13:42:29.933Z,2.53
2022-08-22T13:45:05.472Z,2.30
2022-08-22T13:47:45.405Z,2.10
2022-08-22T13:50:19.929Z,2.67
2022-08-22T13:52:53.754Z,2.40
2022-08-22T13:55:34.289Z,2.25
2022-08-22T13:58:11.007Z,3.05
2022-08-22T14:01:17.532Z,2.80
2022-08-22T14:03:49.260Z,2.67
2022-08-22T14:06:41.415Z,2.58
2022-08-22T14:09:31.477Z,2.58
2022-08-22T14:12:12.061Z,2.45
2022-08-22T14:18:15.730Z,2.58
2022-08-22T14:20:48.482Z,2.70
2022-08-22T14:23:27.041Z,2.63
2022-08-22T14:25:56.434Z,3.10
2022-08-22T14:28:28.800Z,2.80
2022-08-22T14:31:01.940Z,2.40
2022-08-22T14:33:35.824Z,2.75
2022-08-22T14:36:12.404Z,2.55
2022-08-22T14:38:47.763Z,2.22
2022-08-22T14:41:26.715Z,2.55
2022-08-22T14:43:59.973Z,2.80
2022-08-22T14:46:34.843Z,2.30
2022-08-22T14:49:28.671Z,2.50
2022-08-22T14:52:09.031Z,2.78
2022-08-22T14:54:37.430Z,2.67
2022-08-22T14:57:12.004Z,2.90
2022-08-22T14:59:50.333Z,2.83
2022-08-22T15:02:25.554Z,3.05
2022-08-22T15:04:55.628Z,2.55
2022-08-22T15:07:26.362Z,2.50
2022-08-22T15:09:58.814Z,2.83
2022-08-22T15:12:29.263Z,2.42
2022-08-22T15:14:59.699Z,2.40
2022-08-22T15:17:40.430Z,2.95
2022-08-22T15:20:27.600Z,2.45
2022-08-22T15:22:59.241Z,2.92
2022-08-22T15:25:31.236Z,2.83
2022-08-22T15:28:05.737Z,2.72
2022-08-22T15:30:39.326Z,3.03
2022-08-22T15:33:16.571Z,3.30
2022-08-22T15:35:49.094Z,3.00
2022-08-22T15:38:29.598Z,3.10
2022-08-22T15:41:37.049Z,2.70
2022-08-22T15:44:09.623Z,2.67
2022-08-22T15:46:45.367Z,3.30
2022-08-22T15:49:27.842Z,2.95
2022-08-22T15:52:11.123Z,3.13
2022-08-22T15:55:18.055Z,3.80
2022-08-22T15:58:00.111Z,3.17
2022-08-22T16:00:36.132Z,3.20
2022-08-22T16:03:24.097Z,2.90
2022-08-22T16:05:55.588Z,2.72
2022-08-22T16:08:32.759Z,3.00
2022-08-22T16:11:24.319Z,2.40
2022-08-22T16:14:16.770Z,2.65
2022-08-22T16:17:03.264Z,3.78
2022-08-22T16:19:32.163Z,3.05
2022-08-22T16:22:17.571Z,2.92
2022-08-22T16:25:10.285Z,2.83
2022-08-22T16:27:52.350Z,3.38
2022-08-22T16:30:34.009Z,5.50
2022-08-22T16:33:03.513Z,4.05
2022-08-22T16:36:04.384Z,4.15
2022-08-22T16:38:40.783Z,4.82
2022-08-22T16:41:27.359Z,6.18
2022-08-22T16:44:22.095Z,6.55
2022-08-22T16:46:53.010Z,5.25
2022-08-22T16:49:29.695Z,5.00
2022-08-22T16:52:36.316Z,4.03
2022-08-22T16:55:06.207Z,5.38
2022-08-22T16:58:05.739Z,3.53
2022-08-22T17:00:42.887Z,3.78
2022-08-22T17:03:20.694Z,3.78
2022-08-22T17:06:03.915Z,4.03
2022-08-22T17:08:49.171Z,3.67
2022-08-22T17:11:30.199Z,3.08
2022-08-22T17:14:12.923Z,3.95
2022-08-22T17:16:55.094Z,4.32
2022-08-22T17:19:35.709Z,4.50
2022-08-22T17:22:11.124Z,3.50
2022-08-22T17:24:45.037Z,4.28
2022-08-22T17:27:24.319Z,4.35
2022-08-22T17:30:02.571Z,4.93
2022-08-22T17:32:38.819Z,4.38
2022-08-22T17:35:17.925Z,4.05
2022-08-22T17:37:55.392Z,3.40
2022-08-22T17:40:37.161Z,3.42
2022-08-22T17:43:48.722Z,4.50
2022-08-22T17:46:32.496Z,6.43
2022-08-22T17:49:09.298Z,4.07
2022-08-22T17:51:43.938Z,5.60
2022-08-22T17:54:18.455Z,4.60
2022-08-22T17:56:56.418Z,4.60
2022-08-22T17:59:40.189Z,4.30
2022-08-22T18:05:37.046Z,4.70
2022-08-22T18:11:04.373Z,4.22
2022-08-22T18:13:42.193Z,4.75
2022-08-22T18:16:23.241Z,4.53
2022-08-22T18:18:59.492Z,4.68
2022-08-22T18:21:32.241Z,5.10
2022-08-22T18:24:02.572Z,4.45
2022-08-22T18:26:38.502Z,4.53
2022-08-22T18:29:11.825Z,5.20
2022-08-22T18:31:49.460Z,8.20
2022-08-22T18:34:25.632Z,6.93
2022-08-22T18:37:01.273Z,5.68
2022-08-22T18:39:34.045Z,6.75
2022-08-22T18:42:08.063Z,8.95
2022-08-22T18:44:39.207Z,6.82
2022-08-22T18:47:16.462Z,6.53
2022-08-22T18:49:54.287Z,6.70
2022-08-22T18:52:38.711Z,5.53
2022-08-22T18:55:31.366Z,6.47
2022-08-22T18:58:25.049Z,4.82
2022-08-22T19:01:08.315Z,6.25
2022-08-22T19:03:52.355Z,5.80
2022-08-22T19:06:42.299Z,6.40
2022-08-22T19:09:42.923Z,5.97
2022-08-22T19:12:23.889Z,6.57
2022-08-22T19:15:13.012Z,5.93
2022-08-22T19:18:11.411Z,5.65
2022-08-22T19:21:00.005Z,7.27
2022-08-22T19:23:49.521Z,7.00
2022-08-22T19:26:33.820Z,6.05
2022-08-22T19:29:07.667Z,5.60
2022-08-22T19:31:48.750Z,7.05
2022-08-22T19:34:37.818Z,6.97
2022-08-22T19:37:30.653Z,8.65
2022-08-22T19:40:08.741Z,7.35
2022-08-22T19:42:39.052Z,7.50
2022-08-22T19:45:29.456Z,7.75
2022-08-22T19:48:00.598Z,6.22
2022-08-22T19:50:34.495Z,6.38
2022-08-22T19:53:27.708Z,7.07
2022-08-22T19:56:07.036Z,5.68
2022-08-22T19:58:52.017Z,6.32
2022-08-22T20:01:45.371Z,12.05
2022-08-22T20:04:36.688Z,10.05
2022-08-22T20:07:14.635Z,8.35
2022-08-22T20:09:48.538Z,7.00
2022-08-22T20:12:24.970Z,8.13
2022-08-22T20:14:54.070Z,6.63
2022-08-22T20:17:40.153Z,6.05
2022-08-22T20:20:17.745Z,5.97
2022-08-22T20:22:50.261Z,6.30
2022-08-22T20:25:42.527Z,6.20
2022-08-22T20:28:29.791Z,5.90
2022-08-22T20:31:00.199Z,5.95
2022-08-22T20:33:32.682Z,6.72
2022-08-22T20:36:16.641Z,5.57
2022-08-22T20:38:59.120Z,5.95
2022-08-22T20:41:32.954Z,5.80
2022-08-22T20:44:12.629Z,6.07
2022-08-22T20:46:54.895Z,5.95
2022-08-22T20:49:26.349Z,5.80
2022-08-22T20:51:55.898Z,5.88
2022-08-22T20:56:54.456Z,4.53
2022-08-22T20:59:36.088Z,5.78
2022-08-22T21:02:09.584Z,5.38
2022-08-22T21:04:44.511Z,4.55
2022-08-22T21:07:14.754Z,5.03
2022-08-22T21:10:01.100Z,5.05
2022-08-22T21:12:30.922Z,4.60
2022-08-22T21:15:00.031Z,4.57
2022-08-22T21:17:35.625Z,5.10
2022-08-22T21:20:17.704Z,5.55
2022-08-22T21:22:45.173Z,4.53
2022-08-22T21:25:12.961Z,4.57
2022-08-22T21:27:40.481Z,4.63
2022-08-22T21:30:11.551Z,4.93
2022-08-22T21:32:43.067Z,4.53
2022-08-22T21:35:24.196Z,4.63
2022-08-22T21:37:51.758Z,3.83
2022-08-22T21:40:21.562Z,4.25
2022-08-22T21:43:00.846Z,4.47
2022-08-22T21:45:32.399Z,4.47
2022-08-22T21:48:00.874Z,4.00
2022-08-22T21:50:37.902Z,4.90
2022-08-22T21:53:12.133Z,4.05
2022-08-22T21:55:43.799Z,3.58
2022-08-22T21:58:36.789Z,3.88
2022-08-22T22:01:28.798Z,4.75
2022-08-22T22:03:57.551Z,4.68
2022-08-22T22:06:25.612Z,4.15
2022-08-22T22:08:52.945Z,5.07
2022-08-22T22:11:20.570Z,4.72
2022-08-22T22:13:48.027Z,4.00
2022-08-22T22:16:23.227Z,4.50
2022-08-22T22:18:52.086Z,4.40
2022-08-22T22:21:19.723Z,4.07
2022-08-22T22:23:47.193Z,3.75
2022-08-22T22:26:14.719Z,3.42
2022-08-22T22:28:47.421Z,4.07
2022-08-22T22:31:15.696Z,3.55
2022-08-22T22:33:43.701Z,3.75
2022-08-22T22:36:18.146Z,4.28
2022-08-22T22:38:46.279Z,3.40
2022-08-22T22:41:13.761Z,5.20
2022-08-22T22:43:41.204Z,4.78
2022-08-22T22:46:09.095Z,4.45
2022-08-22T22:48:36.662Z,4.75
2022-08-22T22:51:08.124Z,4.60
2022-08-22T22:53:40.492Z,4.88
2022-08-22T22:56:14.578Z,4.07
2022-08-22T22:58:45.159Z,4.20
2022-08-22T23:01:18.030Z,4.80
2022-08-22T23:03:46.428Z,4.13
2022-08-22T23:06:17.304Z,5.03
2022-08-22T23:08:47.379Z,4.70
2022-08-22T23:11:17.888Z,4.65
2022-08-22T23:13:46.112Z,4.90
2022-08-22T23:16:20.951Z,5.68
2022-08-22T23:18:50.203Z,5.18
2022-08-22T23:21:19.774Z,4.65
2022-08-22T23:23:49.295Z,5.07
2022-08-22T23:26:17.416Z,5.40
2022-08-22T23:28:45.116Z,4.32
2022-08-22T23:31:18.401Z,5.00
2022-08-22T23:33:46.819Z,5.25
2022-08-22T23:36:17.893Z,5.20
2022-08-22T23:38:46.592Z,4.40
2022-08-22T23:41:17.807Z,4.50
2022-08-22T23:43:48.736Z,4.72
2022-08-22T23:46:17.958Z,5.65
2022-08-22T23:48:45.989Z,5.63
2022-08-22T23:51:15.322Z,4.97
2022-08-22T23:53:45.139Z,4.32
2022-08-22T23:56:19.533Z,4.85
2022-08-22T23:58:49.076Z,5.72
